createdAt,value
2019-05-12T00:00:43.680Z,6.80
2019-05-12T00:03:13.459Z,6.80
2019-05-12T00:05:43.201Z,6.80
2019-05-12T00:08:12.909Z,6.70
2019-05-12T00:11:08.803Z,6.70
2019-05-12T00:13:38.503Z,6.70
2019-05-12T00:16:08.905Z,6.60
2019-05-12T00:18:38.520Z,6.60
2019-05-12T00:21:08.879Z,6.60
2019-05-12T00:23:58.154Z,6.60
2019-05-12T00:26:28.249Z,6.60
2019-05-12T00:28:58.843Z,6.50
2019-05-12T00:31:28.455Z,6.50
2019-05-12T00:33:58.690Z,6.50
2019-05-12T00:36:29.303Z,6.40
2019-05-12T00:38:59.007Z,6.40
2019-05-12T00:41:28.604Z,6.40
2019-05-12T00:43:59.018Z,6.40
2019-05-12T00:46:34.900Z,6.40
2019-05-12T00:49:07.998Z,6.30
2019-05-12T00:51:38.313Z,6.30
2019-05-12T00:54:15.133Z,6.30
2019-05-12T00:56:48.390Z,6.30
2019-05-12T00:59:19.155Z,6.30
2019-05-12T01:01:49.650Z,6.20
2019-05-12T01:04:25.431Z,6.20
2019-05-12T01:06:57.883Z,6.20
2019-05-12T01:09:28.276Z,6.20
2019-05-12T01:11:59.479Z,6.20
2019-05-12T01:14:29.792Z,6.20
2019-05-12T01:17:00.153Z,6.20
2019-05-12T01:19:30.520Z,6.20
2019-05-12T01:22:00.856Z,6.20
2019-05-12T01:24:30.970Z,6.20
2019-05-12T01:27:01.428Z,6.10
2019-05-12T01:29:31.792Z,6.10
2019-05-12T01:32:09.340Z,6.10
2019-05-12T01:34:40.055Z,6.10
2019-05-12T01:37:27.811Z,6.10
2019-05-12T01:39:59.786Z,6.10
2019-05-12T01:42:28.890Z,6.10
2019-05-12T01:45:02.685Z,6.10
2019-05-12T01:47:35.505Z,5.90
2019-05-12T01:50:09.241Z,6.00
2019-05-12T01:52:39.486Z,6.00
2019-05-12T01:55:09.656Z,6.00
2019-05-12T01:57:40.028Z,6.00
2019-05-12T02:00:12.153Z,5.90
2019-05-12T02:02:42.123Z,5.90
2019-05-12T02:05:13.137Z,5.90
2019-05-12T02:07:53.805Z,5.80
2019-05-12T02:10:28.302Z,5.80
2019-05-12T02:12:59.349Z,5.70
2019-05-12T02:15:30.095Z,5.70
2019-05-12T02:18:00.513Z,5.70
2019-05-12T02:20:30.618Z,5.80
2019-05-12T02:23:00.836Z,5.70
2019-05-12T02:25:31.821Z,5.70
2019-05-12T02:28:01.992Z,5.60
2019-05-12T02:30:32.247Z,5.70
2019-05-12T02:33:04.992Z,5.60
2019-05-12T02:35:35.431Z,5.50
2019-05-12T02:38:06.162Z,5.50
2019-05-12T02:40:36.469Z,5.40
2019-05-12T02:43:06.515Z,5.40
2019-05-12T02:45:36.880Z,5.50
2019-05-12T02:48:07.134Z,5.40
2019-05-12T02:50:38.426Z,5.40
2019-05-12T02:53:08.807Z,5.40
2019-05-12T02:55:39.413Z,5.50
2019-05-12T02:58:11.113Z,5.60
2019-05-12T03:00:40.669Z,5.60
2019-05-12T03:03:14.442Z,5.60
2019-05-12T03:05:46.043Z,5.60
2019-05-12T03:08:16.734Z,5.60
2019-05-12T03:10:48.378Z,5.50
2019-05-12T03:13:17.956Z,5.40
2019-05-12T03:15:47.490Z,5.40
2019-05-12T03:18:17.037Z,5.40
2019-05-12T03:20:46.522Z,5.50
2019-05-12T03:23:19.418Z,5.50
2019-05-12T03:25:47.181Z,5.60
2019-05-12T03:28:16.882Z,5.60
2019-05-12T03:30:48.549Z,5.50
2019-05-12T03:33:19.845Z,5.60
2019-05-12T03:35:53.362Z,5.70
2019-05-12T03:38:19.992Z,5.70
2019-05-12T03:40:49.436Z,5.70
2019-05-12T03:43:18.960Z,5.70
2019-05-12T03:45:48.441Z,5.80
2019-05-12T03:48:18.076Z,5.90
2019-05-12T03:50:47.703Z,5.90
2019-05-12T03:53:17.262Z,5.90
2019-05-12T03:55:47.428Z,6.00
2019-05-12T03:58:17.164Z,6.00
2019-05-12T04:00:46.714Z,6.00
2019-05-12T04:03:16.189Z,6.10
2019-05-12T04:05:45.750Z,6.10
2019-05-12T04:08:16.018Z,6.10
2019-05-12T04:10:46.009Z,6.10
2019-05-12T04:13:15.699Z,6.20
2019-05-12T04:15:45.883Z,6.10
2019-05-12T04:18:16.163Z,6.00
2019-05-12T04:20:45.956Z,6.00
2019-05-12T04:23:15.794Z,6.10
2019-05-12T04:25:52.229Z,6.30
2019-05-12T04:28:16.715Z,6.40
2019-05-12T04:30:46.268Z,6.20
2019-05-12T04:33:16.100Z,6.30
2019-05-12T04:35:45.754Z,6.30
2019-05-12T04:38:15.471Z,6.20
2019-05-12T04:40:45.615Z,6.10
2019-05-12T04:43:15.297Z,6.20
2019-05-12T04:45:45.242Z,6.10
2019-05-12T04:48:18.196Z,6.10
2019-05-12T04:50:46.075Z,6.30
2019-05-12T04:53:15.539Z,6.40
2019-05-12T04:55:45.055Z,6.70
2019-05-12T04:58:15.591Z,6.90
2019-05-12T05:00:45.757Z,7.90
2019-05-12T05:03:15.396Z,9.30
2019-05-12T05:05:44.974Z,10.00
2019-05-12T05:08:19.173Z,10.60
2019-05-12T05:10:45.699Z,10.80
2019-05-12T05:13:15.422Z,10.50
2019-05-12T05:15:45.035Z,10.10
2019-05-12T05:18:14.567Z,9.20
2019-05-12T05:20:44.106Z,9.10
2019-05-12T05:23:14.333Z,8.60
2019-05-12T05:25:43.888Z,8.40
2019-05-12T05:28:14.610Z,7.90
2019-05-12T05:30:44.462Z,8.20
2019-05-12T05:33:14.664Z,8.20
2019-05-12T05:35:44.460Z,8.00
2019-05-12T05:38:19.092Z,8.20
2019-05-12T05:40:45.954Z,8.30
2019-05-12T05:43:18.460Z,8.50
2019-05-12T05:45:46.602Z,8.50
2019-05-12T05:48:16.055Z,8.70
2019-05-12T05:50:45.670Z,8.80
2019-05-12T05:53:19.476Z,9.00
2019-05-12T05:55:50.322Z,9.20
2019-05-12T05:58:17.452Z,9.30
2019-05-12T06:00:46.933Z,9.00
2019-05-12T06:03:22.925Z,9.50
2019-05-12T06:05:47.490Z,10.10
2019-05-12T06:08:20.881Z,10.80
2019-05-12T06:10:48.148Z,11.00
2019-05-12T06:13:21.359Z,12.10
2019-05-12T06:15:48.812Z,13.30
2019-05-12T06:18:18.367Z,15.10
2019-05-12T06:20:47.844Z,16.50
2019-05-12T06:23:17.297Z,17.40
2019-05-12T06:25:51.359Z,16.90
2019-05-12T06:28:17.967Z,15.90
2019-05-12T06:30:50.120Z,17.00
2019-05-12T06:33:22.784Z,17.40
2019-05-12T06:35:49.691Z,17.40
2019-05-12T06:38:19.175Z,16.70
2019-05-12T06:40:48.635Z,14.70
2019-05-12T06:43:18.139Z,13.30
2019-05-12T06:45:47.638Z,12.30
2019-05-12T06:48:19.264Z,11.90
2019-05-12T06:50:48.351Z,11.50
2019-05-12T06:53:20.157Z,11.30
2019-05-12T06:55:49.057Z,11.20
2019-05-12T06:58:26.340Z,11.00
2019-05-12T07:00:49.730Z,10.90
2019-05-12T07:03:24.399Z,10.60
2019-05-12T07:05:50.357Z,10.80
2019-05-12T07:08:26.609Z,11.00
2019-05-12T07:10:57.757Z,11.00
2019-05-12T07:13:24.636Z,11.00
2019-05-12T07:15:54.399Z,11.10
2019-05-12T07:18:32.121Z,11.40
2019-05-12T07:20:55.127Z,11.70
2019-05-12T07:23:28.229Z,12.00
2019-05-12T07:25:55.954Z,12.10
2019-05-12T07:28:30.243Z,12.10
2019-05-12T07:30:56.711Z,11.80
2019-05-12T07:33:26.255Z,11.70
2019-05-12T07:36:01.355Z,11.70
2019-05-12T07:38:31.261Z,11.70
2019-05-12T07:41:08.842Z,11.60
2019-05-12T07:43:33.832Z,11.30
2019-05-12T07:46:07.074Z,11.50
2019-05-12T07:48:40.348Z,11.60
2019-05-12T07:51:07.122Z,11.60
2019-05-12T07:53:37.594Z,11.50
2019-05-12T07:56:07.083Z,11.40
2019-05-12T07:58:41.039Z,11.40
2019-05-12T08:01:08.166Z,11.30
2019-05-12T08:03:37.672Z,11.30
2019-05-12T08:06:07.182Z,11.40
2019-05-12T08:08:44.226Z,11.20
2019-05-12T08:11:08.028Z,11.20
2019-05-12T08:13:40.807Z,11.30
2019-05-12T08:16:43.755Z,11.20
2019-05-12T08:19:14.945Z,11.20
2019-05-12T08:22:01.561Z,11.00
2019-05-12T08:24:50.201Z,10.90
2019-05-12T08:27:19.841Z,10.80
2019-05-12T08:30:00.839Z,10.90
2019-05-12T08:32:25.508Z,11.30
2019-05-12T08:35:40.676Z,11.50
2019-05-12T08:38:10.210Z,11.50
2019-05-12T08:40:49.340Z,11.40
2019-05-12T08:43:16.540Z,11.30
2019-05-12T08:46:24.521Z,11.20
2019-05-12T08:49:00.119Z,11.10
2019-05-12T08:52:00.083Z,11.30
2019-05-12T08:54:33.644Z,11.50
2019-05-12T08:57:03.854Z,11.80
2019-05-12T08:59:34.161Z,12.10
2019-05-12T09:02:10.485Z,12.60
2019-05-12T09:04:45.377Z,12.80
2019-05-12T09:07:09.561Z,12.70
2019-05-12T09:09:39.298Z,12.30
2019-05-12T09:12:08.993Z,12.10
2019-05-12T09:14:41.392Z,11.90
2019-05-12T09:17:10.293Z,11.70
2019-05-12T09:19:39.794Z,11.60
2019-05-12T09:22:16.987Z,11.60
2019-05-12T09:24:40.663Z,11.50
2019-05-12T09:27:10.586Z,11.50
2019-05-12T09:29:40.256Z,11.40
2019-05-12T09:32:09.961Z,11.40
2019-05-12T09:34:46.926Z,11.50
2019-05-12T09:37:10.612Z,11.70
2019-05-12T09:39:43.651Z,12.10
2019-05-12T09:42:11.429Z,12.30
2019-05-12T09:44:41.982Z,12.50
2019-05-12T09:47:21.925Z,12.60
2019-05-12T09:49:44.404Z,12.50
2019-05-12T09:52:22.205Z,12.50
2019-05-12T09:54:45.371Z,12.50
2019-05-12T09:57:14.952Z,12.60
2019-05-12T09:59:45.924Z,12.50
2019-05-12T10:02:20.481Z,12.40
2019-05-12T10:04:50.229Z,12.50
2019-05-12T10:07:18.154Z,12.50
2019-05-12T10:09:55.041Z,12.60
2019-05-12T10:12:24.934Z,12.60
2019-05-12T10:14:54.492Z,12.90
2019-05-12T10:17:26.330Z,13.00
2019-05-12T10:19:58.114Z,13.10
2019-05-12T10:22:39.717Z,13.20
2019-05-12T10:25:07.839Z,13.70
2019-05-12T10:27:37.499Z,14.00
2019-05-12T10:30:12.082Z,14.00
2019-05-12T10:32:39.617Z,13.60
2019-05-12T10:35:12.571Z,13.10
2019-05-12T10:37:43.716Z,12.70
2019-05-12T10:40:16.390Z,12.50
2019-05-12T10:54:18.896Z,13.90
2019-05-12T10:56:59.063Z,14.30
2019-05-12T11:02:33.633Z,14.40
2019-05-12T11:05:03.032Z,14.10
2019-05-12T11:07:35.417Z,14.10
2019-05-12T11:10:15.614Z,14.20
2019-05-12T11:12:38.005Z,14.10
2019-05-12T11:15:08.522Z,14.00
2019-05-12T11:17:55.487Z,13.80
2019-05-12T11:20:25.473Z,13.70
2019-05-12T11:22:55.187Z,13.60
2019-05-12T11:25:45.929Z,13.60
2019-05-12T11:28:19.446Z,13.60
2019-05-12T11:31:21.545Z,13.90
2019-05-12T11:33:53.931Z,13.90
2019-05-12T11:36:24.585Z,14.20
2019-05-12T11:38:54.110Z,14.40
2019-05-12T11:41:28.288Z,14.30
2019-05-12T11:43:54.960Z,14.40
2019-05-12T11:46:24.507Z,14.60
2019-05-12T11:48:54.098Z,14.90
2019-05-12T11:51:29.012Z,15.20
2019-05-12T11:53:54.849Z,15.30
2019-05-12T11:56:24.537Z,15.30
2019-05-12T11:58:56.652Z,15.00
2019-05-12T12:01:27.831Z,14.80
2019-05-12T12:03:57.349Z,14.90
2019-05-12T12:06:26.950Z,14.80
2019-05-12T12:08:56.515Z,14.80
2019-05-12T12:11:28.173Z,14.70
2019-05-12T12:14:00.380Z,14.60
2019-05-12T12:16:28.487Z,14.50
2019-05-12T12:19:02.853Z,14.30
2019-05-12T12:21:32.018Z,14.20
2019-05-12T12:24:01.051Z,14.20
2019-05-12T12:26:32.622Z,14.30
2019-05-12T12:29:03.349Z,14.50
2019-05-12T12:31:52.662Z,14.40
2019-05-12T12:34:29.910Z,14.30
2019-05-12T12:36:55.452Z,14.20
2019-05-12T12:39:25.191Z,14.10
2019-05-12T12:42:00.138Z,14.10
2019-05-12T12:44:26.154Z,14.00
2019-05-12T12:47:00.092Z,13.70
2019-05-12T12:49:29.298Z,13.50
2019-05-12T12:51:58.338Z,13.40
2019-05-12T12:54:28.079Z,13.40
2019-05-12T12:57:00.280Z,13.50
2019-05-12T12:59:28.887Z,13.60
2019-05-12T13:01:59.192Z,13.80
2019-05-12T13:04:29.830Z,14.10
2019-05-12T13:06:59.326Z,14.60
2019-05-12T13:09:28.941Z,14.80
2019-05-12T13:11:58.523Z,15.00
2019-05-12T13:14:28.558Z,14.80
2019-05-12T13:16:59.390Z,14.60
2019-05-12T13:19:33.865Z,14.50
2019-05-12T13:22:03.776Z,14.60
2019-05-12T13:24:33.811Z,14.80
2019-05-12T13:27:03.644Z,14.90
2019-05-12T13:29:39.394Z,15.30
2019-05-12T13:32:04.707Z,15.40
2019-05-12T13:34:38.413Z,15.20
2019-05-12T13:37:09.262Z,15.10
2019-05-12T13:39:36.987Z,14.70
2019-05-12T13:42:06.534Z,14.40
2019-05-12T13:44:40.549Z,14.00
2019-05-12T13:47:07.930Z,13.80
2019-05-12T13:49:42.727Z,13.80
2019-05-12T13:52:08.794Z,13.80
2019-05-12T13:54:38.776Z,13.90
2019-05-12T13:57:11.792Z,13.80
2019-05-12T13:59:39.527Z,13.90
2019-05-12T14:02:13.966Z,14.20
2019-05-12T14:04:40.423Z,14.40
2019-05-12T14:07:17.720Z,14.60
2019-05-12T14:11:03.248Z,14.90
2019-05-12T14:13:33.813Z,14.90
2019-05-12T14:16:06.689Z,14.80
2019-05-12T14:18:44.330Z,14.80
2019-05-12T14:21:14.235Z,14.90
2019-05-12T14:23:48.371Z,14.80
2019-05-12T14:26:17.841Z,14.80
2019-05-12T14:28:49.564Z,15.10
2019-05-12T14:31:29.347Z,15.30
2019-05-12T14:33:49.741Z,15.50
2019-05-12T14:36:22.053Z,15.40
2019-05-12T14:38:50.577Z,15.50
2019-05-12T14:41:24.819Z,15.70
2019-05-12T14:43:53.554Z,15.40
2019-05-12T14:46:24.236Z,15.70
2019-05-12T14:48:54.333Z,15.90
2019-05-12T14:51:24.566Z,15.90
2019-05-12T14:53:55.933Z,15.70
2019-05-12T14:56:25.800Z,15.70
2019-05-12T14:59:00.316Z,15.40
2019-05-12T15:01:38.728Z,15.40
2019-05-12T15:03:57.935Z,15.30
2019-05-12T15:06:29.528Z,15.20
2019-05-12T15:08:59.261Z,15.40
2019-05-12T15:11:28.867Z,15.60
2019-05-12T15:13:58.393Z,15.80
2019-05-12T15:16:31.755Z,15.80
2019-05-12T15:18:59.328Z,15.50
2019-05-12T15:21:31.255Z,15.30
2019-05-12T15:24:00.138Z,15.20
2019-05-12T15:26:29.794Z,15.10
2019-05-12T15:28:59.472Z,14.80
2019-05-12T15:31:28.955Z,14.50
2019-05-12T15:33:58.561Z,14.30
2019-05-12T15:36:28.226Z,14.10
2019-05-12T15:38:59.032Z,14.20
2019-05-12T15:41:28.735Z,14.20
2019-05-12T15:43:58.545Z,14.20
2019-05-12T15:46:34.650Z,14.20
2019-05-12T15:48:59.442Z,14.10
2019-05-12T15:51:29.251Z,14.00
2019-05-12T15:54:06.535Z,13.90
2019-05-12T15:56:29.992Z,13.80
2019-05-12T15:59:01.375Z,13.70
2019-05-12T16:01:33.489Z,13.60
2019-05-12T16:04:03.693Z,13.60
2019-05-12T16:06:33.476Z,13.60
2019-05-12T16:09:03.970Z,13.70
2019-05-12T16:11:33.737Z,13.80
2019-05-12T16:14:03.528Z,13.80
2019-05-12T16:16:33.993Z,13.90
2019-05-12T16:19:04.595Z,14.00
2019-05-12T16:21:34.260Z,14.00
2019-05-12T16:24:10.896Z,14.10
2019-05-12T16:26:42.303Z,14.10
2019-05-12T16:31:55.466Z,14.10
2019-05-12T16:34:25.369Z,14.10
2019-05-12T16:36:55.872Z,14.00
2019-05-12T16:39:30.349Z,14.00
2019-05-12T16:42:00.098Z,14.10
2019-05-12T16:44:31.508Z,14.20
2019-05-12T16:47:01.172Z,14.40
2019-05-12T16:49:33.359Z,14.50
2019-05-12T16:52:03.679Z,14.60
2019-05-12T16:54:33.620Z,14.70
2019-05-12T16:57:06.524Z,14.50
2019-05-12T16:59:37.079Z,14.30
2019-05-12T17:02:48.034Z,14.20
2019-05-12T17:04:54.909Z,14.10
2019-05-12T17:07:27.336Z,14.10
2019-05-12T17:09:56.949Z,14.20
2019-05-12T17:12:31.828Z,14.20
2019-05-12T17:14:59.707Z,14.20
2019-05-12T17:18:01.332Z,14.40
2019-05-12T17:20:29.670Z,14.90
2019-05-12T17:23:00.319Z,15.30
2019-05-12T17:25:34.377Z,15.70
2019-05-12T17:28:06.578Z,16.30
2019-05-12T17:30:36.287Z,16.90
2019-05-12T17:33:05.860Z,17.10
2019-05-12T17:35:35.443Z,17.70
2019-05-12T17:38:11.667Z,18.00
2019-05-12T17:40:36.647Z,17.70
2019-05-12T17:43:11.662Z,17.10
2019-05-12T17:45:37.513Z,16.40
2019-05-12T17:48:07.832Z,15.80
2019-05-12T17:53:57.856Z,14.90
2019-05-12T17:56:34.038Z,14.70
2019-05-12T17:58:58.675Z,14.70
2019-05-12T18:01:44.522Z,14.50
2019-05-12T18:05:12.310Z,14.20
2019-05-12T18:08:05.897Z,14.10
2019-05-12T18:10:57.080Z,14.20
2019-05-12T18:14:02.436Z,14.00
2019-05-12T18:16:43.509Z,13.50
2019-05-12T18:19:17.917Z,13.20
2019-05-12T18:21:46.702Z,13.00
2019-05-12T18:25:04.136Z,12.80
2019-05-12T18:27:34.985Z,12.70
2019-05-12T18:30:06.007Z,12.60
2019-05-12T18:33:29.154Z,12.50
2019-05-12T18:35:23.003Z,12.40
2019-05-12T18:37:54.131Z,12.30
2019-05-12T18:40:27.788Z,12.20
2019-05-12T18:42:59.003Z,12.10
2019-05-12T18:45:28.638Z,12.10
2019-05-12T18:48:01.050Z,12.00
2019-05-12T18:50:34.377Z,11.90
2019-05-12T18:53:07.290Z,11.80
2019-05-12T18:55:40.299Z,11.80
2019-05-12T18:58:10.159Z,11.70
2019-05-12T19:00:43.487Z,11.60
2019-05-12T19:03:14.051Z,11.50
2019-05-12T19:05:47.146Z,11.50
2019-05-12T19:08:25.256Z,11.40
2019-05-12T19:11:20.062Z,11.40
2019-05-12T19:13:52.281Z,11.30
2019-05-12T19:16:24.536Z,11.20
2019-05-12T19:18:57.192Z,11.10
2019-05-12T19:21:26.788Z,11.10
2019-05-12T19:23:56.575Z,11.00
2019-05-12T19:26:26.362Z,11.00
2019-05-12T19:28:58.085Z,10.90
2019-05-12T19:31:27.952Z,10.90
2019-05-12T19:37:30.087Z,10.80
2019-05-12T19:40:38.161Z,10.70
2019-05-12T19:43:14.103Z,10.70
2019-05-12T19:45:52.845Z,10.60
2019-05-12T19:48:26.568Z,10.50
2019-05-12T19:50:54.952Z,10.50
2019-05-12T19:53:23.798Z,10.40
2019-05-12T19:55:53.305Z,10.40
2019-05-12T19:58:23.763Z,10.40
2019-05-12T20:00:54.276Z,10.30
2019-05-12T20:03:24.260Z,10.20
2019-05-12T20:05:59.501Z,10.10
2019-05-12T20:08:32.269Z,10.10
2019-05-12T20:11:03.739Z,10.10
2019-05-12T20:13:38.293Z,10.10
2019-05-12T20:16:04.733Z,10.00
2019-05-12T20:18:42.488Z,10.00
2019-05-12T20:21:05.823Z,9.90
2019-05-12T20:23:35.545Z,9.90
2019-05-12T20:26:05.063Z,9.90
2019-05-12T20:28:50.612Z,9.80
2019-05-12T20:31:18.743Z,9.80
2019-05-12T20:33:48.277Z,9.70
2019-05-12T20:36:20.775Z,9.60
2019-05-12T20:38:50.296Z,9.60
2019-05-12T20:41:26.804Z,9.50
2019-05-12T20:43:56.825Z,9.50
2019-05-12T20:46:26.386Z,9.50
2019-05-12T20:48:56.128Z,9.50
2019-05-12T20:51:25.947Z,9.40
2019-05-12T20:53:55.448Z,9.30
2019-05-12T20:56:25.179Z,9.30
2019-05-12T20:58:54.868Z,9.30
2019-05-12T21:01:26.470Z,9.20
2019-05-12T21:03:57.635Z,9.20
2019-05-12T21:06:32.995Z,9.10
2019-05-12T21:09:03.467Z,9.10
2019-05-12T21:11:33.808Z,9.10
2019-05-12T21:14:09.936Z,9.00
2019-05-12T21:16:39.012Z,9.00
2019-05-12T21:19:11.092Z,8.90
2019-05-12T21:21:44.199Z,8.90
2019-05-12T21:24:24.308Z,8.90
2019-05-12T21:26:54.758Z,8.80
2019-05-12T21:29:28.502Z,8.80
2019-05-12T21:31:56.263Z,8.80
2019-05-12T21:34:25.997Z,8.70
2019-05-12T21:36:58.807Z,8.70
2019-05-12T21:39:30.683Z,8.60
2019-05-12T21:42:03.838Z,8.60
2019-05-12T21:44:32.966Z,8.50
2019-05-12T21:47:09.536Z,8.50
2019-05-12T21:49:36.547Z,8.40
2019-05-12T21:52:07.995Z,8.40
2019-05-12T21:54:39.629Z,8.30
2019-05-12T21:57:08.970Z,8.20
2019-05-12T21:59:39.771Z,8.20
2019-05-12T22:02:09.450Z,8.20
2019-05-12T22:04:45.041Z,8.10
2019-05-12T22:07:10.602Z,8.00
2019-05-12T22:09:45.587Z,8.00
2019-05-12T22:12:11.474Z,8.00
2019-05-12T22:14:43.213Z,8.00
2019-05-12T22:17:13.649Z,7.90
2019-05-12T22:19:44.368Z,7.90
2019-05-12T22:22:14.334Z,7.80
2019-05-12T22:24:45.350Z,7.80
2019-05-12T22:27:21.744Z,7.70
2019-05-12T22:29:46.354Z,7.70
2019-05-12T22:32:19.057Z,7.70
2019-05-12T22:34:47.157Z,7.60
2019-05-12T22:37:16.929Z,7.60
2019-05-12T22:39:46.602Z,7.50
2019-05-12T22:42:20.228Z,7.50
2019-05-12T22:44:55.283Z,7.40
2019-05-12T22:47:18.844Z,7.40
2019-05-12T22:49:52.210Z,7.40
2019-05-12T22:52:20.466Z,7.40
2019-05-12T22:54:51.101Z,7.30
2019-05-12T22:57:20.866Z,7.30
2019-05-12T22:59:50.534Z,7.30
2019-05-12T23:02:28.072Z,7.20
2019-05-12T23:04:51.306Z,7.20
2019-05-12T23:07:25.410Z,7.20
2019-05-12T23:09:53.765Z,7.10
2019-05-12T23:12:23.701Z,7.10
2019-05-12T23:15:02.712Z,7.00
2019-05-12T23:17:25.360Z,7.00
2019-05-12T23:19:55.848Z,7.00
2019-05-12T23:22:29.452Z,7.00
2019-05-12T23:24:56.763Z,6.90
2019-05-12T23:27:29.857Z,6.90
2019-05-12T23:30:01.599Z,6.90
2019-05-12T23:32:28.857Z,6.90
2019-05-12T23:34:58.800Z,6.90
2019-05-12T23:37:30.237Z,6.90
2019-05-12T23:39:59.700Z,6.80
2019-05-12T23:42:29.219Z,6.80
2019-05-12T23:44:58.798Z,6.80
2019-05-12T23:47:28.507Z,6.70
2019-05-12T23:49:58.069Z,6.70
2019-05-12T23:52:27.828Z,6.70
2019-05-12T23:54:57.415Z,6.70
2019-05-12T23:57:27.081Z,6.70
2019-05-12T23:59:56.671Z,6.70
